Time;durP1;ratioP1;P1;durP2;ratioP2;P2;SDS_P1;SDS_P2;PMS_P1;PMS_P2;Temp;Humidity;BMP_temperature;BMP_pressure;BME280_temperature;BME280_humidity;BME280_pressure;Samples;Min_cycle;Max_cycle;Signal;HPM_P1;HPM_P2
2022/10/19 00:01:20;;;;;;;2.15;0.68;;;10.30;99.30;;;;;;5065893;28;20071;-82
2022/10/19 00:03:48;;;;;;;3.55;0.88;;;10.30;99.30;;;;;;5080837;28;20040;-83
2022/10/19 00:06:24;;;;;;;3.60;1.25;;;10.30;99.10;;;;;;5070032;28;20102;-83
2022/10/19 00:08:51;;;;;;;3.15;1.70;;;10.20;99.10;;;;;;5054614;28;20490;-82
2022/10/19 00:11:17;;;;;;;1.17;0.75;;;10.30;99.10;;;;;;5051467;28;20556;-83
2022/10/19 00:13:43;;;;;;;0.60;0.60;;;10.20;99.00;;;;;;5045359;28;20036;-84
2022/10/19 00:16:11;;;;;;;2.58;1.45;;;10.20;99.00;;;;;;5054833;28;20036;-84
2022/10/19 00:18:38;;;;;;;1.13;0.85;;;10.20;98.90;;;;;;5072720;28;20027;-83
2022/10/19 00:21:06;;;;;;;2.10;1.33;;;10.30;99.00;;;;;;5076018;28;20020;-83
2022/10/19 00:23:33;;;;;;;1.90;1.50;;;10.30;98.80;;;;;;5075238;28;20264;-83
2022/10/19 00:25:59;;;;;;;1.77;0.85;;;10.20;98.70;;;;;;5056611;28;20021;-84
2022/10/19 00:28:25;;;;;;;0.73;0.63;;;10.20;98.80;;;;;;5055434;28;20040;-85
2022/10/19 00:30:51;;;;;;;3.03;1.20;;;10.30;98.70;;;;;;5069318;28;20021;-85
2022/10/19 00:33:21;;;;;;;1.75;0.85;;;10.20;98.70;;;;;;5058469;28;20036;-82
2022/10/19 00:35:51;;;;;;;1.83;0.50;;;10.20;98.70;;;;;;5055838;28;20402;-82
2022/10/19 00:38:19;;;;;;;1.23;0.70;;;10.30;98.80;;;;;;5057440;28;20079;-82
2022/10/19 00:40:45;;;;;;;;;;;10.30;98.70;;;;;;5039336;28;20048;-83
2022/10/19 00:43:20;;;;;;;0.77;0.60;;;10.30;98.70;;;;;;5065588;28;19983;-84
2022/10/19 00:45:46;;;;;;;1.50;0.73;;;10.20;98.60;;;;;;5049476;28;20124;-84
2022/10/19 00:48:34;;;;;;;0.47;0.35;;;10.30;98.70;;;;;;5073299;28;20108;-83
2022/10/19 00:51:00;;;;;;;0.60;0.60;;;10.20;98.60;;;;;;5070577;28;20043;-82
2022/10/19 00:53:30;;;;;;;0.68;0.45;;;10.20;98.40;;;;;;5059899;28;20039;-84
2022/10/19 00:55:57;;;;;;;3.13;0.50;;;10.20;98.40;;;;;;5067701;28;20070;-85
2022/10/19 00:58:23;;;;;;;1.10;0.60;;;10.20;98.30;;;;;;5065570;28;20027;-82
2022/10/19 01:00:49;;;;;;;0.40;0.30;;;10.20;98.30;;;;;;5058147;28;20047;-85
2022/10/19 01:03:15;;;;;;;1.50;0.55;;;10.20;98.30;;;;;;5054203;28;20025;-82
2022/10/19 01:05:42;;;;;;;1.50;0.50;;;10.10;98.20;;;;;;5072176;28;20035;-83
2022/10/19 01:08:09;;;;;;;0.70;0.40;;;10.20;98.30;;;;;;5071888;28;20017;-82
2022/10/19 01:11:05;;;;;;;1.58;0.68;;;10.10;98.30;;;;;;5072611;28;20028;-83
2022/10/19 01:13:45;;;;;;;1.52;0.50;;;10.20;98.40;;;;;;5063995;28;20032;-83
2022/10/19 01:16:23;;;;;;;2.35;0.70;;;10.20;98.40;;;;;;5067019;28;20628;-83
2022/10/19 01:19:38;;;;;;;1.20;0.77;;;10.30;98.30;;;;;;5079208;28;20020;-83
2022/10/19 01:22:42;;;;;;;0.43;0.40;;;10.30;98.20;;;;;;5024381;28;20035;-83
2022/10/19 01:25:29;;;;;;;0.70;0.45;;;10.30;98.10;;;;;;5062743;28;20021;-82
2022/10/19 01:28:12;;;;;;;2.00;0.90;;;10.20;98.00;;;;;;5072582;28;20428;-82
2022/10/19 01:30:49;;;;;;;0.70;0.63;;;10.20;98.10;;;;;;5062331;28;20159;-81
2022/10/19 01:33:42;;;;;;;4.50;0.63;;;10.20;98.20;;;;;;5045772;28;20059;-82
2022/10/19 01:36:21;;;;;;;1.75;0.60;;;10.20;98.20;;;;;;5024606;28;20041;-81
2022/10/19 01:39:00;;;;;;;0.75;0.70;;;10.20;98.30;;;;;;5052716;28;20107;-82
2022/10/19 01:41:58;;;;;;;0.77;0.60;;;10.20;98.20;;;;;;5052838;28;20028;-84
2022/10/19 01:44:53;;;;;;;0.90;0.57;;;10.20;98.30;;;;;;5030699;28;20040;-82
2022/10/19 01:47:24;;;;;;;1.50;0.50;;;10.20;98.30;;;;;;5055495;28;20025;-83
2022/10/19 01:50:00;;;;;;;0.70;0.60;;;10.20;98.20;;;;;;5055242;28;20036;-83
2022/10/19 01:52:27;;;;;;;1.63;0.82;;;10.20;98.40;;;;;;5052657;28;20032;-84
2022/10/19 01:54:58;;;;;;;1.77;0.80;;;10.30;98.30;;;;;;5066623;28;20021;-83
2022/10/19 01:57:33;;;;;;;1.92;0.98;;;10.30;98.20;;;;;;5058018;28;20025;-82
2022/10/19 02:00:06;;;;;;;1.20;0.65;;;10.30;98.10;;;;;;5056415;28;20025;-82
2022/10/19 02:02:35;;;;;;;1.48;0.77;;;10.20;98.00;;;;;;5040042;28;20483;-82
2022/10/19 02:05:03;;;;;;;1.20;0.70;;;10.20;98.10;;;;;;5054807;28;20493;-83
2022/10/19 02:07:30;;;;;;;1.40;0.90;;;10.30;98.20;;;;;;5055079;28;20378;-82
2022/10/19 02:09:56;;;;;;;0.87;0.63;;;10.30;97.90;;;;;;5055383;28;20021;-83
2022/10/19 02:12:24;;;;;;;2.35;0.45;;;10.30;97.70;;;;;;5050589;28;20393;-83
2022/10/19 02:14:56;;;;;;;0.80;0.65;;;10.30;97.60;;;;;;5054002;28;20493;-83
2022/10/19 02:17:30;;;;;;;0.88;0.40;;;10.30;97.50;;;;;;5052082;28;20040;-82
2022/10/19 02:19:57;;;;;;;5.18;0.95;;;10.30;97.50;;;;;;5055801;28;20393;-83
2022/10/19 02:22:23;;;;;;;1.45;0.68;;;10.20;97.40;;;;;;5065524;28;20021;-83
2022/10/19 02:24:49;;;;;;;4.32;1.65;;;10.20;97.50;;;;;;5059867;28;20576;-81
2022/10/19 02:27:16;;;;;;;3.40;1.15;;;10.20;97.50;;;;;;5062965;28;20032;-82
2022/10/19 02:29:42;;;;;;;2.67;0.93;;;10.20;97.50;;;;;;5060163;28;20036;-83
2022/10/19 02:32:08;;;;;;;1.40;0.85;;;10.20;97.50;;;;;;5060593;28;20037;-82
2022/10/19 02:34:36;;;;;;;2.03;1.17;;;10.20;97.50;;;;;;5053694;28;20072;-83
2022/10/19 02:37:03;;;;;;;2.40;0.90;;;10.20;97.50;;;;;;5034319;28;20144;-83
2022/10/19 02:39:29;;;;;;;1.02;0.88;;;10.10;97.50;;;;;;5075156;28;20442;-82
2022/10/19 02:42:10;;;;;;;2.63;1.40;;;10.20;97.50;;;;;;5074730;28;20031;-83
2022/10/19 02:44:46;;;;;;;1.23;0.70;;;10.20;97.50;;;;;;5075078;28;20099;-82
2022/10/19 02:47:17;;;;;;;1.55;1.05;;;10.20;97.50;;;;;;5074936;28;20036;-83
2022/10/19 02:49:44;;;;;;;1.58;1.20;;;10.20;97.40;;;;;;5055806;28;20028;-84
2022/10/19 02:52:12;;;;;;;3.28;1.05;;;10.10;97.40;;;;;;5074605;28;20063;-83
2022/10/19 02:54:39;;;;;;;1.35;0.90;;;10.10;97.40;;;;;;5058038;28;20020;-83
2022/10/19 02:57:25;;;;;;;1.15;0.65;;;10.10;97.50;;;;;;5059803;28;20025;-83
2022/10/19 02:59:51;;;;;;;1.55;0.95;;;10.10;97.60;;;;;;5065962;28;20051;-83
2022/10/19 03:02:19;;;;;;;2.40;1.08;;;10.10;97.50;;;;;;5076229;28;20025;-83
2022/10/19 03:04:45;;;;;;;;;;;10.10;97.50;;;;;;5074848;28;20481;-82
2022/10/19 03:07:13;;;;;;;2.33;1.00;;;10.10;97.50;;;;;;5074408;28;19912;-82
2022/10/19 03:09:40;;;;;;;2.08;1.40;;;10.10;97.60;;;;;;5060169;28;20017;-83
2022/10/19 03:12:06;;;;;;;2.95;1.23;;;10.10;97.70;;;;;;5078022;28;20137;-83
2022/10/19 03:14:32;;;;;;;2.80;1.02;;;10.10;97.70;;;;;;5065829;28;20044;-84
2022/10/19 03:16:57;;;;;;;2.58;1.08;;;10.10;97.70;;;;;;5087597;28;20070;-83
2022/10/19 03:19:23;;;;;;;1.63;1.13;;;10.20;97.60;;;;;;5083937;28;20477;-83
2022/10/19 03:21:50;;;;;;;1.50;1.40;;;10.20;97.50;;;;;;5075302;28;20063;-84
2022/10/19 03:24:16;;;;;;;2.17;1.30;;;10.20;97.50;;;;;;5056658;28;20016;-82
2022/10/19 03:26:42;;;;;;;4.13;2.03;;;10.20;97.50;;;;;;5070565;28;20021;-82
2022/10/19 03:29:08;;;;;;;5.57;1.58;;;10.20;97.40;;;;;;5054901;28;20021;-81
2022/10/19 03:31:34;;;;;;;2.67;1.58;;;10.20;97.50;;;;;;5062049;28;20509;-83
2022/10/19 03:34:00;;;;;;;2.90;2.53;;;10.20;97.50;;;;;;5083744;28;20072;-84
2022/10/19 03:36:32;;;;;;;4.63;2.63;;;10.20;97.60;;;;;;5072020;28;20100;-85
2022/10/19 03:39:01;;;;;;;3.72;2.63;;;10.20;97.40;;;;;;5075020;28;20013;-85
2022/10/19 03:41:28;;;;;;;3.85;2.60;;;10.10;97.70;;;;;;5065004;28;20025;-86
2022/10/19 03:43:55;;;;;;;5.10;3.25;;;10.10;97.80;;;;;;5089045;28;20028;-87
2022/10/19 03:46:22;;;;;;;6.50;2.97;;;10.10;97.80;;;;;;5064788;28;20057;-83
2022/10/19 03:48:48;;;;;;;3.65;3.08;;;10.00;97.80;;;;;;5049880;28;20115;-83
2022/10/19 03:51:17;;;;;;;4.53;2.92;;;10.00;97.80;;;;;;5073203;28;20063;-84
2022/10/19 03:53:43;;;;;;;5.57;3.55;;;10.00;97.80;;;;;;5060337;28;20047;-85
2022/10/19 03:56:18;;;;;;;7.70;4.72;;;10.00;97.90;;;;;;5072622;28;20023;-84
2022/10/19 03:58:46;;;;;;;6.85;4.35;;;10.00;98.00;;;;;;5073711;28;20020;-85
2022/10/19 04:01:30;;;;;;;5.25;4.03;;;10.00;98.10;;;;;;5073256;28;20377;-85
2022/10/19 04:03:58;;;;;;;6.13;4.90;;;10.00;98.20;;;;;;5055356;28;20032;-85
2022/10/19 04:06:30;;;;;;;8.30;3.50;;;10.00;98.30;;;;;;5073869;28;20139;-84
2022/10/19 04:08:57;;;;;;;11.25;4.70;;;10.00;98.50;;;;;;5061214;28;20013;-85
2022/10/19 04:11:26;;;;;;;5.78;3.85;;;10.00;98.70;;;;;;5071714;28;20029;-84
2022/10/19 04:13:53;;;;;;;7.53;4.30;;;10.00;98.80;;;;;;5073396;28;20025;-84
2022/10/19 04:16:20;;;;;;;6.57;3.60;;;10.00;98.90;;;;;;5073348;28;20016;-84
2022/10/19 04:18:46;;;;;;;5.82;4.35;;;10.00;98.90;;;;;;5082537;28;20039;-82
2022/10/19 04:21:23;;;;;;;5.97;4.65;;;10.10;99.10;;;;;;5055128;28;20063;-84
2022/10/19 04:23:51;;;;;;;13.70;5.13;;;10.00;99.20;;;;;;5055853;28;20108;-84
2022/10/19 04:26:17;;;;;;;19.65;10.63;;;10.00;99.20;;;;;;5057574;28;20298;-85
2022/10/19 04:28:43;;;;;;;18.35;9.60;;;10.00;99.50;;;;;;5044022;28;20028;-84
2022/10/19 04:31:09;;;;;;;9.03;6.10;;;9.90;99.70;;;;;;5053979;28;20021;-85
2022/10/19 04:33:35;;;;;;;10.48;5.88;;;9.90;99.70;;;;;;5069372;28;20430;-84
2022/10/19 04:36:04;;;;;;;7.97;6.72;;;9.80;99.90;;;;;;5075899;28;20810;-83
2022/10/19 04:38:30;;;;;;;8.95;7.45;;;9.70;99.90;;;;;;5073767;28;20129;-83
2022/10/19 04:41:06;;;;;;;12.00;7.00;;;9.70;99.90;;;;;;5073677;28;20016;-83
2022/10/19 04:43:33;;;;;;;15.35;8.80;;;9.60;99.90;;;;;;5074106;28;20107;-81
2022/10/19 04:46:08;;;;;;;9.25;6.30;;;9.60;99.90;;;;;;5067978;28;20498;-86
2022/10/19 04:48:35;;;;;;;11.63;6.65;;;9.50;99.90;;;;;;5047836;28;20028;-85
2022/10/19 04:51:02;;;;;;;10.02;6.68;;;9.60;99.90;;;;;;5073005;28;20099;-88
2022/10/19 04:53:28;;;;;;;12.30;7.95;;;9.60;99.90;;;;;;5072607;28;20032;-85
2022/10/19 04:55:54;;;;;;;13.60;10.43;;;9.50;99.90;;;;;;5073576;28;20100;-85
2022/10/19 04:58:20;;;;;;;20.27;11.43;;;9.50;99.90;;;;;;5073415;28;20087;-84
2022/10/19 05:00:46;;;;;;;12.88;9.38;;;9.50;99.90;;;;;;5054279;28;20021;-83
2022/10/19 05:03:12;;;;;;;11.43;9.35;;;9.50;99.90;;;;;;5052898;28;20051;-84
2022/10/19 05:05:38;;;;;;;21.52;11.77;;;9.60;99.90;;;;;;5067594;28;20025;-82
2022/10/19 05:08:04;;;;;;;20.00;13.75;;;9.50;99.90;;;;;;5073101;28;20016;-82
2022/10/19 05:10:30;;;;;;;15.40;9.77;;;9.50;99.90;;;;;;5072593;28;20035;-82
2022/10/19 05:12:56;;;;;;;10.23;8.73;;;9.50;99.90;;;;;;5072239;28;20032;-84
2022/10/19 05:15:22;;;;;;;11.57;8.68;;;9.40;99.90;;;;;;5064093;28;20040;-84
2022/10/19 05:17:48;;;;;;;12.18;8.27;;;9.50;99.90;;;;;;5072485;28;20111;-83
2022/10/19 05:20:14;;;;;;;12.63;8.88;;;9.50;99.90;;;;;;5077328;28;20432;-84
2022/10/19 05:22:40;;;;;;;13.80;8.73;;;9.50;99.90;;;;;;5066077;28;20082;-84
2022/10/19 05:25:06;;;;;;;10.98;7.80;;;9.60;99.90;;;;;;5066217;28;20016;-86
2022/10/19 05:27:32;;;;;;;12.87;8.63;;;9.60;99.90;;;;;;5063295;28;20103;-85
2022/10/19 05:29:58;;;;;;;13.45;10.18;;;9.50;99.90;;;;;;5080865;28;20029;-83
2022/10/19 05:32:25;;;;;;;12.50;8.18;;;9.60;99.90;;;;;;5076813;28;20021;-83
2022/10/19 05:34:51;;;;;;;14.13;8.60;;;9.50;99.90;;;;;;5062323;28;20045;-85
2022/10/19 05:37:17;;;;;;;11.18;9.43;;;9.50;99.90;;;;;;5075901;28;20029;-82
2022/10/19 05:39:43;;;;;;;17.55;11.65;;;9.50;99.90;;;;;;5069382;28;20024;-84
2022/10/19 05:42:09;;;;;;;15.68;11.70;;;9.40;99.90;;;;;;5075714;28;20104;-84
2022/10/19 05:44:35;;;;;;;14.60;11.02;;;9.40;99.90;;;;;;5074814;28;20017;-84
2022/10/19 05:47:01;;;;;;;13.77;11.98;;;9.40;99.90;;;;;;5069544;28;20032;-86
2022/10/19 05:49:27;;;;;;;18.85;13.07;;;9.40;99.90;;;;;;5052423;28;20478;-85
2022/10/19 05:51:55;;;;;;;15.65;11.68;;;9.50;99.90;;;;;;5056916;28;20025;-86
2022/10/19 05:54:21;;;;;;;14.50;11.95;;;9.50;99.90;;;;;;5076864;28;20021;-85
2022/10/19 05:56:47;;;;;;;16.48;12.63;;;9.50;99.90;;;;;;5069625;28;20024;-83
2022/10/19 05:59:18;;;;;;;16.98;13.57;;;9.40;99.90;;;;;;5063451;28;20021;-85
2022/10/19 06:01:44;;;;;;;18.63;14.35;;;9.40;99.90;;;;;;5056205;28;20024;-85
2022/10/19 06:04:12;;;;;;;18.08;15.25;;;9.40;99.90;;;;;;5070126;28;20028;-83
2022/10/19 06:06:39;;;;;;;18.98;16.45;;;9.40;99.90;;;;;;5048173;28;20020;-85
2022/10/19 06:09:05;;;;;;;21.00;15.77;;;9.40;99.90;;;;;;5062988;28;20021;-83
2022/10/19 06:11:35;;;;;;;22.52;18.27;;;9.40;99.90;;;;;;5055252;28;20048;-84
2022/10/19 06:14:03;;;;;;;22.52;20.00;;;9.40;99.90;;;;;;5055873;28;20025;-84
2022/10/19 06:16:30;;;;;;;27.10;22.48;;;9.40;99.90;;;;;;5055513;28;20028;-84
2022/10/19 06:18:57;;;;;;;30.02;22.83;;;9.20;99.90;;;;;;5037002;28;20107;-85
2022/10/19 06:21:26;;;;;;;38.90;27.08;;;9.10;99.90;;;;;;5055034;28;20029;-84
2022/10/19 06:23:54;;;;;;;40.78;27.20;;;8.90;99.90;;;;;;5036932;28;20441;-85
2022/10/19 06:26:20;;;;;;;35.00;24.20;;;8.80;99.90;;;;;;5054930;28;20074;-85
2022/10/19 06:28:47;;;;;;;39.30;25.20;;;8.70;99.90;;;;;;5054509;28;20119;-83
2022/10/19 06:31:13;;;;;;;37.67;26.37;;;8.60;99.90;;;;;;5055424;28;20044;-86
2022/10/19 06:33:40;;;;;;;26.00;20.73;;;8.60;99.90;;;;;;5057340;28;20095;-85
2022/10/19 06:36:07;;;;;;;24.10;20.10;;;8.50;99.90;;;;;;5058775;28;20094;-81
2022/10/19 06:38:34;;;;;;;29.60;21.38;;;8.40;99.90;;;;;;5081574;28;20028;-83
2022/10/19 06:41:00;;;;;;;25.77;18.58;;;8.40;99.90;;;;;;5077258;28;20029;-82
2022/10/19 06:43:26;;;;;;;20.83;15.35;;;8.40;99.90;;;;;;5071898;28;20028;-83
2022/10/19 06:45:52;;;;;;;23.30;16.88;;;8.40;99.90;;;;;;5059046;28;20030;-85
2022/10/19 06:48:18;;;;;;;20.45;14.70;;;8.30;99.90;;;;;;5074824;28;20052;-87
2022/10/19 06:50:44;;;;;;;20.30;14.27;;;8.30;99.90;;;;;;5073264;28;20500;-85
2022/10/19 06:53:10;;;;;;;20.98;14.93;;;8.20;99.90;;;;;;5059643;28;20115;-86
2022/10/19 06:55:36;;;;;;;18.25;13.10;;;8.20;99.90;;;;;;5054782;28;20419;-86
2022/10/19 06:58:03;;;;;;;20.58;15.13;;;8.10;99.90;;;;;;5056833;28;20055;-86
2022/10/19 07:00:29;;;;;;;18.95;14.90;;;8.10;99.90;;;;;;5054508;28;20021;-86
2022/10/19 07:02:57;;;;;;;20.37;14.80;;;8.20;99.90;;;;;;5054272;28;20025;-85
2022/10/19 07:05:23;;;;;;;;;;;8.20;99.90;;;;;;5059643;28;20024;-86
2022/10/19 07:07:48;;;;;;;18.15;14.15;;;8.10;99.90;;;;;;5060897;28;19905;-85
2022/10/19 07:10:14;;;;;;;20.08;13.52;;;8.10;99.90;;;;;;5058227;28;20473;-84
2022/10/19 07:12:40;;;;;;;17.35;12.88;;;8.10;99.90;;;;;;5057845;28;20029;-84
2022/10/19 07:15:06;;;;;;;13.85;11.05;;;8.20;99.90;;;;;;5055068;28;20060;-83
2022/10/19 07:17:32;;;;;;;17.52;13.73;;;8.00;99.90;;;;;;5037598;28;20513;-83
2022/10/19 07:19:58;;;;;;;14.10;11.45;;;7.90;99.90;;;;;;5041762;28;20021;-83
2022/10/19 07:22:24;;;;;;;18.92;12.23;;;7.90;99.90;;;;;;5073219;28;20056;-83
2022/10/19 07:24:51;;;;;;;18.42;14.45;;;7.90;99.90;;;;;;5060755;28;20079;-82
2022/10/19 07:27:17;;;;;;;17.38;14.38;;;7.90;99.90;;;;;;5075115;28;20115;-82
2022/10/19 07:29:43;;;;;;;16.25;12.70;;;8.00;99.90;;;;;;5068777;28;20009;-83
2022/10/19 07:32:09;;;;;;;18.98;15.00;;;8.00;99.90;;;;;;5065873;28;20036;-82
2022/10/19 07:34:35;;;;;;;24.13;17.85;;;8.00;99.90;;;;;;5053345;28;20052;-83
2022/10/19 07:37:00;;;;;;;23.02;16.30;;;8.00;99.90;;;;;;5050224;28;20021;-82
2022/10/19 07:39:26;;;;;;;27.30;19.27;;;7.90;99.90;;;;;;5064762;28;20028;-83
2022/10/19 07:41:52;;;;;;;25.30;18.85;;;7.90;99.90;;;;;;5078488;28;20455;-81
2022/10/19 07:44:18;;;;;;;28.15;21.33;;;7.90;99.90;;;;;;5075098;28;20027;-83
2022/10/19 07:46:44;;;;;;;33.10;23.55;;;8.00;99.90;;;;;;5072526;28;20025;-83
2022/10/19 07:49:15;;;;;;;32.85;22.35;;;8.10;99.90;;;;;;5071955;28;20020;-84
2022/10/19 07:51:41;;;;;;;28.23;21.70;;;8.20;99.90;;;;;;5073573;28;20036;-85
2022/10/19 07:54:07;;;;;;;30.23;22.13;;;8.20;99.90;;;;;;5072798;28;20089;-84
2022/10/19 07:56:34;;;;;;;24.15;21.40;;;8.30;99.90;;;;;;5072991;28;20051;-83
2022/10/19 07:59:00;;;;;;;27.35;19.80;;;8.40;99.90;;;;;;5072840;28;20039;-82
2022/10/19 08:01:31;;;;;;;34.28;20.67;;;8.30;99.90;;;;;;5048199;28;20029;-83
2022/10/19 08:03:58;;;;;;;24.45;20.90;;;8.20;99.90;;;;;;5046543;28;20051;-83
2022/10/19 08:06:25;;;;;;;23.53;19.83;;;8.10;99.90;;;;;;5054389;28;20016;-82
2022/10/19 08:08:51;;;;;;;24.25;19.75;;;8.10;99.90;;;;;;5072248;28;20033;-83
2022/10/19 08:11:19;;;;;;;21.20;15.90;;;8.10;99.90;;;;;;5040157;28;20020;-84
2022/10/19 08:13:46;;;;;;;23.60;20.95;;;8.10;99.90;;;;;;5072551;28;20021;-84
2022/10/19 08:16:24;;;;;;;28.83;19.40;;;8.10;99.90;;;;;;5072279;28;20052;-84
2022/10/19 08:18:51;;;;;;;25.02;20.77;;;8.10;99.90;;;;;;5051577;28;20060;-82
2022/10/19 08:21:17;;;;;;;28.60;20.80;;;8.20;99.90;;;;;;5049067;28;20088;-82
2022/10/19 08:23:43;;;;;;;28.52;20.55;;;8.20;99.90;;;;;;5053688;28;20047;-83
2022/10/19 08:26:09;;;;;;;24.98;17.27;;;8.30;99.90;;;;;;5066546;28;20103;-83
2022/10/19 08:28:35;;;;;;;23.75;16.80;;;8.30;99.90;;;;;;5072702;28;20509;-83
2022/10/19 08:31:16;;;;;;;25.85;18.60;;;8.30;99.90;;;;;;5072194;28;20107;-83
2022/10/19 08:33:42;;;;;;;28.33;18.38;;;8.20;99.90;;;;;;5052379;28;20431;-83
2022/10/19 08:36:10;;;;;;;26.45;19.13;;;8.30;99.90;;;;;;5060273;28;20045;-83
2022/10/19 08:38:36;;;;;;;;;;;8.20;99.90;;;;;;5053515;28;20481;-83
2022/10/19 08:41:59;;;;;;;21.58;18.33;;;8.10;99.90;;;;;;5065717;28;19955;-83
2022/10/19 08:44:49;;;;;;;26.08;18.40;;;8.10;99.90;;;;;;5010049;28;20026;-83
2022/10/19 08:47:32;;;;;;;25.63;18.45;;;8.00;99.90;;;;;;5010179;28;20116;-84
2022/10/19 08:49:59;;;;;;;27.60;19.98;;;8.10;99.90;;;;;;5057059;28;20033;-83
2022/10/19 08:52:34;;;;;;;31.20;21.83;;;8.10;99.90;;;;;;5057425;28;20106;-83
2022/10/19 08:55:04;;;;;;;29.27;20.10;;;8.20;99.90;;;;;;5074866;28;20035;-83
2022/10/19 08:58:15;;;;;;;27.10;20.05;;;8.30;99.90;;;;;;5055761;28;20358;-83
2022/10/19 09:00:51;;;;;;;25.60;21.98;;;8.30;99.90;;;;;;5009473;28;20033;-84
2022/10/19 09:03:41;;;;;;;27.35;20.05;;;8.30;99.90;;;;;;5015898;28;20041;-82
2022/10/19 09:06:25;;;;;;;28.85;21.83;;;8.30;99.90;;;;;;5005083;28;20033;-83
2022/10/19 09:08:53;;;;;;;23.25;17.13;;;8.20;99.90;;;;;;5018805;28;20045;-83
2022/10/19 09:11:24;;;;;;;25.17;16.33;;;8.10;99.90;;;;;;4998440;28;20068;-85
2022/10/19 09:14:01;;;;;;;22.65;14.20;;;8.00;99.90;;;;;;5019622;28;20436;-84
2022/10/19 09:16:27;;;;;;;18.98;11.80;;;7.90;99.90;;;;;;5020111;28;20139;-82
2022/10/19 09:18:53;;;;;;;16.35;12.38;;;7.80;99.90;;;;;;5013883;28;20116;-83
2022/10/19 09:21:54;;;;;;;18.27;12.05;;;7.80;99.90;;;;;;5015346;28;20033;-83
2022/10/19 09:24:36;;;;;;;16.52;12.70;;;7.90;99.90;;;;;;5021484;28;20349;-82
2022/10/19 09:27:02;;;;;;;21.38;16.40;;;8.00;99.90;;;;;;5008568;28;20018;-82
2022/10/19 09:29:42;;;;;;;19.92;14.65;;;7.90;99.90;;;;;;5015472;28;20113;-83
2022/10/19 09:32:20;;;;;;;22.02;17.83;;;7.90;99.90;;;;;;5002212;28;20046;-85
2022/10/19 09:34:54;;;;;;;30.67;19.48;;;8.00;99.90;;;;;;5036735;28;20076;-85
2022/10/19 09:37:21;;;;;;;20.65;14.60;;;8.00;99.90;;;;;;5069327;28;20025;-82
2022/10/19 09:39:47;;;;;;;17.98;12.32;;;8.00;99.90;;;;;;5048553;28;20045;-82
2022/10/19 09:42:31;;;;;;;17.42;11.90;;;8.00;99.90;;;;;;5073586;28;20032;-84
2022/10/19 09:45:16;;;;;;;19.67;12.75;;;7.80;99.90;;;;;;5061993;28;20074;-82
2022/10/19 09:47:47;;;;;;;18.73;14.35;;;7.90;99.90;;;;;;5058402;28;20021;-84
2022/10/19 09:50:20;;;;;;;16.90;12.35;;;8.00;99.90;;;;;;5076106;28;20070;-85
2022/10/19 09:52:54;;;;;;;15.60;13.10;;;8.10;99.90;;;;;;5057274;28;20068;-82
2022/10/19 09:55:27;;;;;;;18.15;13.63;;;8.10;99.90;;;;;;5075790;28;20568;-83
2022/10/19 09:58:13;;;;;;;15.73;12.48;;;8.20;99.90;;;;;;5059050;28;20058;-85
2022/10/19 10:00:50;;;;;;;19.15;13.70;;;8.30;99.90;;;;;;5076540;28;20102;-84
2022/10/19 10:03:34;;;;;;;19.65;13.45;;;8.30;99.90;;;;;;5059673;28;20460;-84
2022/10/19 10:06:15;;;;;;;16.23;12.90;;;8.30;99.90;;;;;;5080287;28;20028;-83
2022/10/19 10:08:57;;;;;;;19.33;13.32;;;8.20;99.90;;;;;;5075800;28;20100;-84
2022/10/19 10:11:32;;;;;;;13.68;11.85;;;8.20;99.90;;;;;;5039839;28;20367;-84
2022/10/19 10:14:05;;;;;;;11.85;8.55;;;8.20;99.90;;;;;;5066580;28;20039;-85
2022/10/19 10:16:35;;;;;;;13.23;8.63;;;8.20;99.90;;;;;;5074914;28;20057;-84
2022/10/19 10:19:11;;;;;;;12.98;10.23;;;8.10;99.90;;;;;;5053611;28;20029;-84
2022/10/19 10:21:51;;;;;;;11.52;9.82;;;8.00;99.90;;;;;;5051034;28;20114;-83
2022/10/19 10:24:19;;;;;;;14.52;10.07;;;8.00;99.90;;;;;;5067598;28;20402;-84
2022/10/19 10:26:51;;;;;;;13.40;9.90;;;8.00;99.90;;;;;;5074734;28;20527;-84
2022/10/19 10:29:34;;;;;;;11.68;8.55;;;8.10;99.90;;;;;;5076391;28;20024;-85
2022/10/19 10:32:10;;;;;;;10.00;7.10;;;8.10;99.90;;;;;;5074965;28;20045;-83
2022/10/19 10:34:56;;;;;;;9.52;6.68;;;8.10;99.90;;;;;;5037238;28;20050;-84
2022/10/19 10:37:27;;;;;;;12.30;7.70;;;8.10;99.90;;;;;;5030482;28;20414;-86
2022/10/19 10:39:55;;;;;;;11.07;7.25;;;8.00;99.90;;;;;;5022558;28;20041;-84
2022/10/19 10:42:35;;;;;;;15.23;9.20;;;7.90;99.90;;;;;;5027999;28;20021;-84
2022/10/19 10:45:03;;;;;;;14.38;9.85;;;7.90;99.90;;;;;;5016169;28;20072;-84
2022/10/19 10:47:30;;;;;;;13.95;9.68;;;8.00;99.90;;;;;;5034874;28;20118;-83
2022/10/19 10:50:04;;;;;;;14.17;9.50;;;8.00;99.90;;;;;;5029162;28;20033;-83
2022/10/19 10:52:30;;;;;;;12.70;9.02;;;8.00;99.90;;;;;;5023755;28;20037;-83
2022/10/19 10:55:08;;;;;;;15.10;9.23;;;8.20;99.90;;;;;;5045650;28;20040;-82
2022/10/19 10:57:40;;;;;;;13.85;9.75;;;8.30;99.90;;;;;;5025509;28;20095;-85
2022/10/19 11:00:20;;;;;;;14.70;9.65;;;8.40;99.90;;;;;;5036248;28;20022;-82
2022/10/19 11:03:19;;;;;;;14.82;10.45;;;8.30;99.90;;;;;;5031621;28;20032;-81
2022/10/19 11:05:50;;;;;;;10.38;9.27;;;8.30;99.90;;;;;;5011750;28;20038;-83
2022/10/19 11:08:23;;;;;;;23.42;12.30;;;8.10;99.90;;;;;;5027382;28;20056;-86
2022/10/19 11:11:07;;;;;;;13.05;8.52;;;8.20;99.90;;;;;;5028047;28;20080;-84
2022/10/19 11:13:45;;;;;;;14.05;8.63;;;8.20;99.90;;;;;;5022403;28;20029;-85
2022/10/19 11:16:12;;;;;;;10.38;8.60;;;8.30;99.90;;;;;;5019638;28;20415;-85
2022/10/19 11:18:44;;;;;;;9.23;8.30;;;8.30;99.90;;;;;;5034873;28;20017;-83
2022/10/19 11:21:25;;;;;;;8.13;6.63;;;8.50;99.90;;;;;;5041118;28;20437;-82
2022/10/19 11:24:00;;;;;;;8.10;6.38;;;8.60;99.90;;;;;;5044693;28;20029;-84
2022/10/19 11:26:57;;;;;;;7.47;6.10;;;8.60;99.90;;;;;;5031670;28;20029;-85
2022/10/19 11:29:49;;;;;;;10.30;6.28;;;8.60;99.90;;;;;;5025211;28;20056;-82
2022/10/19 11:32:41;;;;;;;5.97;5.38;;;8.70;99.90;;;;;;5015465;28;20041;-83
2022/10/19 11:35:16;;;;;;;8.20;6.80;;;8.70;99.90;;;;;;5035277;28;20045;-84
2022/10/19 11:38:05;;;;;;;10.75;7.03;;;8.60;99.90;;;;;;5060489;28;20089;-82
2022/10/19 11:40:46;;;;;;;7.38;6.28;;;8.70;99.90;;;;;;5055214;28;20017;-82
2022/10/19 11:43:25;;;;;;;9.02;6.68;;;8.70;99.90;;;;;;5063998;28;20025;-82
2022/10/19 11:46:01;;;;;;;5.38;4.57;;;8.80;99.90;;;;;;5053764;28;20119;-86
2022/10/19 11:48:47;;;;;;;9.10;6.78;;;8.80;99.90;;;;;;5074707;28;20086;-83
2022/10/19 11:51:58;;;;;;;14.65;6.90;;;9.00;99.90;;;;;;5069174;28;20027;-82
2022/10/19 11:54:45;;;;;;;7.93;6.53;;;9.30;99.90;;;;;;5064837;28;20047;-84
2022/10/19 11:57:20;;;;;;;9.07;5.78;;;9.30;99.90;;;;;;5073158;28;20078;-84
2022/10/19 12:00:05;;;;;;;8.88;6.38;;;9.30;99.90;;;;;;5072941;28;20028;-82
2022/10/19 12:02:55;;;;;;;10.57;6.05;;;9.40;99.90;;;;;;5062198;28;20367;-83
2022/10/19 12:05:25;;;;;;;5.72;4.78;;;9.30;99.90;;;;;;5063564;28;20029;-83
2022/10/19 12:08:00;;;;;;;8.05;5.20;;;9.20;99.90;;;;;;5072846;28;20153;-84
2022/10/19 12:10:35;;;;;;;10.85;6.85;;;9.10;99.90;;;;;;5073170;28;20020;-84
2022/10/19 12:13:03;;;;;;;7.97;5.95;;;9.00;99.90;;;;;;5056058;28;20391;-81
2022/10/19 12:15:39;;;;;;;7.35;5.68;;;8.90;99.90;;;;;;5054471;28;20059;-81
2022/10/19 12:18:38;;;;;;;8.15;5.82;;;8.90;99.90;;;;;;5072941;28;20397;-81
2022/10/19 12:21:30;;;;;;;6.85;6.15;;;8.70;99.90;;;;;;5056218;28;20044;-84
2022/10/19 12:23:59;;;;;;;9.07;6.28;;;8.70;99.90;;;;;;5075180;28;20048;-81
2022/10/19 12:26:32;;;;;;;8.52;5.53;;;8.60;99.90;;;;;;5073196;28;20020;-83
2022/10/19 12:29:02;;;;;;;6.82;5.30;;;8.70;99.90;;;;;;5064419;28;20044;-83
2022/10/19 12:31:29;;;;;;;6.15;4.70;;;8.70;99.90;;;;;;5068516;28;20052;-84
2022/10/19 12:34:23;;;;;;;6.50;5.15;;;8.80;99.90;;;;;;5051213;28;20024;-85
2022/10/19 12:36:54;;;;;;;9.25;5.18;;;8.90;99.90;;;;;;5066836;28;20027;-83
2022/10/19 12:39:37;;;;;;;5.30;4.35;;;8.90;99.90;;;;;;5075460;28;20078;-83
2022/10/19 12:42:21;;;;;;;6.03;5.10;;;8.90;99.90;;;;;;5077314;28;20402;-82
2022/10/19 12:45:15;;;;;;;7.65;5.43;;;8.80;99.90;;;;;;5074927;28;20062;-84
2022/10/19 12:48:20;;;;;;;7.07;5.68;;;8.80;99.90;;;;;;5048913;28;20036;-85
2022/10/19 12:50:52;;;;;;;6.32;4.53;;;8.80;99.90;;;;;;5070373;28;20032;-86
2022/10/19 12:53:37;;;;;;;8.70;5.28;;;8.80;99.90;;;;;;5066263;28;20037;-83
2022/10/19 12:56:11;;;;;;;8.23;5.57;;;8.70;99.90;;;;;;5071375;28;20104;-85
2022/10/19 12:58:40;;;;;;;7.50;5.15;;;8.70;99.90;;;;;;5076143;28;20078;-83
2022/10/19 13:01:08;;;;;;;6.03;4.85;;;8.70;99.90;;;;;;5076581;28;20029;-83
2022/10/19 13:03:35;;;;;;;;;;;8.70;99.90;;;;;;5073289;28;20020;-84
2022/10/19 13:06:12;;;;;;;9.88;5.53;;;8.70;99.90;;;;;;5052971;28;19905;-84
2022/10/19 13:08:48;;;;;;;10.07;6.93;;;8.70;99.90;;;;;;5073426;28;20062;-83
2022/10/19 13:11:16;;;;;;;12.80;6.93;;;8.80;99.90;;;;;;5057905;28;20020;-84